createdAt,value
2022-10-17T00:01:52.702Z,15.26
2022-10-17T00:04:19.179Z,15.27
2022-10-17T00:06:46.933Z,15.05
2022-10-17T00:09:13.397Z,14.96
2022-10-17T00:11:39.816Z,15.12
2022-10-17T00:14:06.547Z,15.61
2022-10-17T00:16:34.996Z,15.98
2022-10-17T00:19:01.442Z,15.81
2022-10-17T00:21:27.926Z,15.52
2022-10-17T00:23:56.005Z,15.93
2022-10-17T00:26:22.611Z,15.41
2022-10-17T00:28:50.391Z,14.93
2022-10-17T00:31:18.621Z,15.16
2022-10-17T00:33:45.409Z,14.91
2022-10-17T00:36:13.676Z,15.08
2022-10-17T00:38:41.632Z,15.39
2022-10-17T00:41:11.371Z,15.22
2022-10-17T00:43:56.278Z,15.68
2022-10-17T00:46:25.284Z,15.77
2022-10-17T00:48:54.527Z,15.73
2022-10-17T00:51:25.178Z,16.08
2022-10-17T00:53:51.872Z,15.65
2022-10-17T00:56:21.119Z,15.42
2022-10-17T00:58:47.737Z,15.50
2022-10-17T01:01:14.268Z,15.27
2022-10-17T01:03:40.988Z,15.58
2022-10-17T01:06:07.400Z,15.74
2022-10-17T01:08:34.227Z,16.05
2022-10-17T01:11:10.757Z,15.91
2022-10-17T01:13:44.625Z,16.04
2022-10-17T01:16:18.538Z,15.93
2022-10-17T01:19:01.283Z,15.56
2022-10-17T01:21:33.255Z,15.18
2022-10-17T01:24:20.976Z,14.93
2022-10-17T01:27:17.936Z,15.04
2022-10-17T01:30:00.091Z,14.82
2022-10-17T01:32:33.104Z,15.01
2022-10-17T01:35:08.876Z,15.30
2022-10-17T01:37:43.846Z,15.75
2022-10-17T01:40:14.695Z,15.40
2022-10-17T01:42:45.888Z,15.59
2022-10-17T01:45:17.607Z,15.61
2022-10-17T01:47:47.961Z,15.45
2022-10-17T01:50:19.510Z,15.65
2022-10-17T01:52:50.999Z,15.82
2022-10-17T01:55:22.106Z,15.64
2022-10-17T01:57:52.861Z,15.95
2022-10-17T02:00:23.094Z,15.73
2022-10-17T02:02:55.013Z,15.71
2022-10-17T02:05:26.399Z,15.52
2022-10-17T02:07:52.792Z,15.77
2022-10-17T02:10:31.471Z,15.71
2022-10-17T02:13:04.718Z,15.18
2022-10-17T02:15:43.582Z,15.38
2022-10-17T02:18:29.325Z,15.65
2022-10-17T02:21:01.016Z,15.64
2022-10-17T02:23:34.301Z,15.18
2022-10-17T02:26:09.863Z,14.83
2022-10-17T02:28:44.471Z,14.47
2022-10-17T02:31:15.942Z,14.99
2022-10-17T02:33:48.862Z,15.21
2022-10-17T02:36:21.322Z,15.46
2022-10-17T02:38:49.440Z,14.87
2022-10-17T02:41:19.251Z,15.26
2022-10-17T02:43:49.109Z,15.49
2022-10-17T02:46:18.380Z,15.46
2022-10-17T02:48:50.326Z,15.32
2022-10-17T02:51:26.693Z,15.37
2022-10-17T02:54:01.110Z,15.27
2022-10-17T02:56:31.261Z,15.02
2022-10-17T02:58:59.630Z,15.04
2022-10-17T03:01:27.185Z,15.25
2022-10-17T03:04:06.364Z,14.74
2022-10-17T03:06:32.818Z,14.51
2022-10-17T03:08:59.221Z,15.01
2022-10-17T03:11:25.623Z,15.22
2022-10-17T03:13:52.073Z,15.40
2022-10-17T03:16:18.489Z,15.71
2022-10-17T03:18:47.966Z,15.65
2022-10-17T03:21:17.990Z,15.48
2022-10-17T03:23:44.444Z,15.47
2022-10-17T03:26:10.902Z,15.55
2022-10-17T03:28:37.513Z,15.30
2022-10-17T03:31:08.747Z,15.56
2022-10-17T03:33:35.809Z,15.54
2022-10-17T03:36:05.588Z,15.37
2022-10-17T03:38:33.391Z,15.50
2022-10-17T03:40:59.791Z,15.38
2022-10-17T03:43:26.207Z,15.48
2022-10-17T03:45:52.653Z,15.50
2022-10-17T03:48:19.123Z,15.33
2022-10-17T03:50:45.643Z,15.62
2022-10-17T03:53:12.052Z,15.93
2022-10-17T03:55:39.803Z,15.45
2022-10-17T03:58:06.219Z,15.40
2022-10-17T04:00:32.681Z,15.70
2022-10-17T04:02:59.131Z,16.07
2022-10-17T04:05:25.565Z,15.92
2022-10-17T04:07:51.962Z,16.14
2022-10-17T04:10:18.393Z,16.09
2022-10-17T04:12:46.152Z,16.06
2022-10-17T04:15:12.798Z,15.98
2022-10-17T04:17:39.195Z,16.18
2022-10-17T04:20:06.847Z,16.05
2022-10-17T04:22:33.277Z,16.14
2022-10-17T04:24:59.690Z,16.17
2022-10-17T04:27:26.088Z,16.39
2022-10-17T04:29:53.897Z,16.09
2022-10-17T04:32:20.318Z,16.19
2022-10-17T04:34:48.459Z,16.15
2022-10-17T04:37:14.836Z,16.11
2022-10-17T04:39:41.275Z,16.24
2022-10-17T04:42:08.057Z,16.35
2022-10-17T04:44:34.464Z,16.46
2022-10-17T04:47:02.223Z,16.05
2022-10-17T04:49:28.717Z,16.41
2022-10-17T04:51:55.199Z,16.14
2022-10-17T04:54:21.623Z,16.00
2022-10-17T04:56:48.110Z,16.04
2022-10-17T04:59:14.500Z,16.07
2022-10-17T05:01:40.990Z,15.65
2022-10-17T05:04:08.898Z,16.13
2022-10-17T05:06:35.292Z,15.80
2022-10-17T05:09:01.690Z,16.42
2022-10-17T05:11:29.383Z,16.28
2022-10-17T05:13:58.010Z,15.91
2022-10-17T05:16:25.519Z,16.12
2022-10-17T05:18:53.810Z,15.88
2022-10-17T05:21:23.229Z,16.27
2022-10-17T05:23:50.246Z,15.93
2022-10-17T05:26:16.903Z,16.01
2022-10-17T05:28:43.403Z,15.86
2022-10-17T05:31:10.710Z,16.01
2022-10-17T05:33:38.724Z,15.92
2022-10-17T05:36:06.636Z,15.82
2022-10-17T05:38:34.821Z,15.84
2022-10-17T05:41:02.674Z,16.04
2022-10-17T05:43:29.456Z,16.14
2022-10-17T05:45:56.175Z,15.87
2022-10-17T05:48:23.830Z,16.37
2022-10-17T05:50:50.226Z,16.64
2022-10-17T05:53:17.244Z,16.18
2022-10-17T05:55:44.982Z,16.62
2022-10-17T05:58:17.764Z,16.19
2022-10-17T06:00:49.010Z,16.51
2022-10-17T06:03:15.494Z,16.13
2022-10-17T06:05:41.936Z,16.49
2022-10-17T06:08:08.451Z,16.44
2022-10-17T06:10:34.854Z,16.05
2022-10-17T06:13:02.584Z,16.07
2022-10-17T06:15:29.082Z,16.40
2022-10-17T06:17:55.480Z,16.14
2022-10-17T06:20:21.951Z,16.62
2022-10-17T06:22:48.376Z,16.22
2022-10-17T06:25:14.860Z,16.11
2022-10-17T06:27:41.287Z,16.18
2022-10-17T06:30:09.991Z,16.43
2022-10-17T06:32:36.448Z,16.33
2022-10-17T06:35:02.954Z,16.45
2022-10-17T06:37:33.765Z,16.66
2022-10-17T06:40:03.228Z,16.43
2022-10-17T06:42:29.615Z,16.32
2022-10-17T06:44:56.014Z,16.21
2022-10-17T06:47:23.773Z,16.44
2022-10-17T06:49:50.169Z,16.50
2022-10-17T06:52:16.589Z,16.58
2022-10-17T06:54:43.365Z,16.56
2022-10-17T06:57:10.126Z,16.59
2022-10-17T06:59:36.651Z,16.58
2022-10-17T07:02:03.155Z,16.73
2022-10-17T07:04:31.207Z,16.83
2022-10-17T07:09:25.310Z,16.87
2022-10-17T07:11:51.713Z,16.73
2022-10-17T07:14:18.157Z,17.13
2022-10-17T07:16:44.558Z,17.15
2022-10-17T07:19:11.009Z,17.05
2022-10-17T07:21:39.421Z,17.36
2022-10-17T07:24:06.191Z,17.36
2022-10-17T07:26:32.985Z,17.40
2022-10-17T07:28:59.427Z,17.41
2022-10-17T07:31:25.866Z,17.78
2022-10-17T07:33:52.271Z,18.06
2022-10-17T07:36:18.803Z,17.59
2022-10-17T07:38:46.537Z,18.03
2022-10-17T07:41:16.575Z,18.03
2022-10-17T07:43:46.230Z,18.13
2022-10-17T07:46:12.701Z,18.04
2022-10-17T07:48:39.700Z,18.00
2022-10-17T07:51:07.930Z,18.32
2022-10-17T07:53:35.626Z,18.15
2022-10-17T07:56:05.572Z,18.49
2022-10-17T07:58:32.004Z,18.13
2022-10-17T08:03:32.419Z,18.62
2022-10-17T08:05:59.266Z,18.49
2022-10-17T08:08:25.867Z,18.91
2022-10-17T08:10:52.691Z,18.34
2022-10-17T08:13:21.198Z,18.62
2022-10-17T08:15:47.772Z,18.65
2022-10-17T08:18:14.398Z,18.58
2022-10-17T08:20:40.915Z,18.31
2022-10-17T08:23:07.470Z,18.42
2022-10-17T08:25:33.924Z,18.63
2022-10-17T08:28:00.351Z,18.59
2022-10-17T08:30:28.258Z,18.50
2022-10-17T08:32:54.685Z,18.74
2022-10-17T08:35:21.087Z,19.03
2022-10-17T08:37:47.490Z,18.82
2022-10-17T08:40:19.173Z,19.04
2022-10-17T08:43:06.111Z,19.10
2022-10-17T08:45:40.887Z,18.97
2022-10-17T08:48:12.322Z,18.99
2022-10-17T08:50:44.262Z,19.21
2022-10-17T08:53:17.883Z,19.16
2022-10-17T08:55:45.904Z,19.10
2022-10-17T08:58:14.101Z,19.21
2022-10-17T09:00:59.994Z,19.41
2022-10-17T09:03:38.434Z,19.65
2022-10-17T09:06:21.052Z,19.18
2022-10-17T09:09:02.415Z,19.66
2022-10-17T09:11:43.250Z,19.64
2022-10-17T09:14:30.463Z,19.68
2022-10-17T09:17:12.173Z,19.59
2022-10-17T09:19:43.089Z,19.97
2022-10-17T09:22:14.879Z,19.65
2022-10-17T09:24:45.121Z,20.04
2022-10-17T09:27:22.281Z,19.73
2022-10-17T09:29:50.421Z,19.88
2022-10-17T09:32:23.711Z,20.13
2022-10-17T09:34:51.661Z,19.28
2022-10-17T09:37:19.422Z,19.35
2022-10-17T09:39:46.194Z,19.79
2022-10-17T09:42:15.159Z,20.01
2022-10-17T09:44:49.742Z,19.96
2022-10-17T09:47:28.206Z,20.43
2022-10-17T09:49:54.667Z,20.86
2022-10-17T09:52:25.238Z,20.49
2022-10-17T09:54:54.793Z,20.68
2022-10-17T09:57:22.462Z,20.59
2022-10-17T09:59:59.386Z,20.30
2022-10-17T10:02:29.012Z,20.61
2022-10-17T10:05:05.863Z,20.46
2022-10-17T10:07:35.729Z,20.33
2022-10-17T10:10:03.889Z,20.23
2022-10-17T10:12:33.109Z,20.30
2022-10-17T10:15:00.264Z,20.79
2022-10-17T10:17:37.396Z,20.95
2022-10-17T10:20:26.033Z,20.79
2022-10-17T10:23:06.749Z,20.81
2022-10-17T10:25:34.782Z,20.91
2022-10-17T10:28:01.944Z,20.77
2022-10-17T10:30:32.802Z,20.50
2022-10-17T10:33:02.593Z,21.18
2022-10-17T10:35:32.763Z,21.08
2022-10-17T10:38:01.695Z,21.40
2022-10-17T10:40:34.591Z,20.92
2022-10-17T10:43:05.074Z,21.86
2022-10-17T10:45:49.254Z,20.90
2022-10-17T10:48:20.322Z,20.88
2022-10-17T10:50:50.467Z,21.06
2022-10-17T10:53:38.283Z,21.82
2022-10-17T10:56:13.231Z,21.38
2022-10-17T10:58:49.259Z,21.50
2022-10-17T11:01:23.949Z,21.72
2022-10-17T11:04:03.648Z,21.33
2022-10-17T11:06:35.847Z,21.60
2022-10-17T11:09:18.048Z,22.02
2022-10-17T11:11:49.963Z,22.02
2022-10-17T11:14:23.413Z,21.70
2022-10-17T11:16:54.042Z,21.59
2022-10-17T11:19:25.274Z,21.60
2022-10-17T11:22:06.596Z,21.49
2022-10-17T11:24:39.522Z,21.31
2022-10-17T11:27:07.894Z,21.41
2022-10-17T11:29:36.565Z,21.72
2022-10-17T11:32:07.802Z,21.58
2022-10-17T11:34:41.332Z,21.80
2022-10-17T11:37:14.672Z,21.51
2022-10-17T11:42:17.426Z,21.45
2022-10-17T11:44:43.839Z,22.04
2022-10-17T11:47:20.427Z,22.12
2022-10-17T11:49:52.865Z,21.59
2022-10-17T11:52:55.278Z,22.18
2022-10-17T11:55:23.426Z,21.79
2022-10-17T11:58:01.657Z,22.31
2022-10-17T12:00:41.741Z,22.21
2022-10-17T12:03:23.740Z,22.69
2022-10-17T12:05:57.946Z,22.64
2022-10-17T12:08:31.400Z,22.19
2022-10-17T12:11:03.710Z,22.70
2022-10-17T12:13:53.727Z,22.47
2022-10-17T12:16:50.369Z,22.08
2022-10-17T12:19:31.605Z,22.58
2022-10-17T12:22:03.103Z,22.78
2022-10-17T12:24:37.083Z,22.22
2022-10-17T12:27:40.550Z,22.18
2022-10-17T12:30:17.194Z,21.90
2022-10-17T12:33:17.321Z,22.09
2022-10-17T12:35:43.732Z,22.31
2022-10-17T12:38:22.815Z,21.94
2022-10-17T12:40:57.487Z,22.18
2022-10-17T12:43:56.219Z,22.33
2022-10-17T12:46:46.978Z,22.31
2022-10-17T12:49:37.703Z,22.77
2022-10-17T12:52:20.125Z,22.80
2022-10-17T12:55:07.197Z,23.06
2022-10-17T12:57:48.418Z,22.58
2022-10-17T13:00:20.559Z,23.00
2022-10-17T13:02:49.028Z,22.99
2022-10-17T13:05:21.951Z,23.13
2022-10-17T13:07:49.545Z,22.94
2022-10-17T13:10:23.397Z,23.32
2022-10-17T13:12:51.929Z,23.16
2022-10-17T13:15:20.649Z,23.32
2022-10-17T13:17:56.307Z,22.71
2022-10-17T13:20:29.120Z,22.99
2022-10-17T13:22:58.104Z,22.78
2022-10-17T13:25:27.197Z,22.83
2022-10-17T13:28:05.996Z,22.81
2022-10-17T13:30:35.808Z,22.37
2022-10-17T13:33:03.243Z,23.07
2022-10-17T13:38:23.733Z,22.76
2022-10-17T13:40:51.517Z,22.76
2022-10-17T13:43:21.844Z,22.60
2022-10-17T13:45:50.387Z,23.16
2022-10-17T13:48:20.916Z,22.69
2022-10-17T13:50:49.280Z,22.69
2022-10-17T13:53:19.151Z,22.75
2022-10-17T13:56:22.939Z,22.75
2022-10-17T13:58:47.540Z,22.63
2022-10-17T14:01:14.833Z,22.49
2022-10-17T14:03:48.181Z,21.78
2022-10-17T14:06:18.455Z,22.45
2022-10-17T14:08:58.406Z,22.73
2022-10-17T14:11:32.314Z,22.12
2022-10-17T14:14:00.209Z,22.02
2022-10-17T14:16:33.094Z,22.36
2022-10-17T14:18:59.806Z,22.34
2022-10-17T14:21:40.866Z,22.13
2022-10-17T14:24:16.302Z,22.45
2022-10-17T14:26:52.165Z,22.39
2022-10-17T14:29:23.164Z,22.64
2022-10-17T14:31:49.904Z,22.49
2022-10-17T14:34:21.394Z,22.05
2022-10-17T14:36:52.106Z,22.13
2022-10-17T14:39:20.739Z,22.10
2022-10-17T14:41:48.017Z,22.43
2022-10-17T14:44:20.836Z,22.22
2022-10-17T14:46:51.345Z,22.08
2022-10-17T14:49:24.991Z,22.47
2022-10-17T14:52:25.480Z,22.21
2022-10-17T14:54:52.417Z,22.12
2022-10-17T14:57:23.644Z,22.48
2022-10-17T14:59:54.252Z,22.18
2022-10-17T15:02:21.805Z,22.08
2022-10-17T15:04:48.430Z,22.37
2022-10-17T15:07:16.104Z,22.35
2022-10-17T15:09:43.308Z,22.60
2022-10-17T15:12:14.953Z,22.26
2022-10-17T15:14:41.355Z,21.82
2022-10-17T15:17:13.505Z,22.01
2022-10-17T15:19:39.891Z,22.11
2022-10-17T15:22:06.326Z,22.15
2022-10-17T15:24:33.026Z,22.27
2022-10-17T15:26:59.417Z,22.21
2022-10-17T15:29:25.826Z,21.95
2022-10-17T15:31:52.249Z,21.90
2022-10-17T15:34:20.000Z,22.11
2022-10-17T15:36:49.384Z,22.18
2022-10-17T15:39:15.831Z,22.16
2022-10-17T15:41:42.293Z,22.07
2022-10-17T15:44:08.732Z,21.72
2022-10-17T15:46:35.645Z,21.83
2022-10-17T15:49:03.932Z,21.71
2022-10-17T15:51:31.655Z,21.64
2022-10-17T15:53:58.169Z,21.73
2022-10-17T15:56:28.469Z,21.63
2022-10-17T15:58:55.226Z,21.26
2022-10-17T16:01:24.725Z,21.70
2022-10-17T16:03:51.905Z,21.65
2022-10-17T16:06:19.582Z,21.97
2022-10-17T16:08:48.031Z,21.74
2022-10-17T16:11:19.046Z,21.69
2022-10-17T16:13:50.998Z,21.62
2022-10-17T16:16:17.429Z,21.60
2022-10-17T16:18:43.851Z,21.61
2022-10-17T16:21:12.254Z,21.86
2022-10-17T16:23:38.828Z,21.84
2022-10-17T16:26:06.674Z,21.72
2022-10-17T16:28:33.478Z,21.82
2022-10-17T16:30:59.957Z,21.78
2022-10-17T16:33:26.377Z,21.57
2022-10-17T16:35:52.795Z,21.92
2022-10-17T16:38:19.463Z,21.45
2022-10-17T16:40:45.868Z,21.37
2022-10-17T16:43:13.673Z,21.76
2022-10-17T16:45:40.198Z,21.33
2022-10-17T16:48:06.729Z,21.66
2022-10-17T16:50:33.223Z,21.28
2022-10-17T16:52:59.610Z,21.18
2022-10-17T16:55:25.998Z,21.32
2022-10-17T16:57:52.494Z,21.74
2022-10-17T17:00:20.385Z,21.62
2022-10-17T17:02:47.748Z,21.29
2022-10-17T17:05:14.642Z,21.65
2022-10-17T17:07:41.040Z,21.55
2022-10-17T17:10:08.306Z,21.51
2022-10-17T17:12:36.009Z,21.31
2022-10-17T17:15:02.697Z,21.65
2022-10-17T17:17:48.346Z,21.77
2022-10-17T17:20:16.907Z,21.65
2022-10-17T17:22:43.314Z,21.49
2022-10-17T17:25:11.815Z,21.36
2022-10-17T17:27:38.255Z,21.70
2022-10-17T17:30:05.502Z,21.74
2022-10-17T17:32:33.434Z,20.96
2022-10-17T17:34:59.849Z,21.44
2022-10-17T17:37:26.260Z,21.08
2022-10-17T17:39:52.675Z,21.39
2022-10-17T17:42:19.322Z,21.53
2022-10-17T17:44:45.740Z,21.48
2022-10-17T17:47:12.116Z,21.53
2022-10-17T17:49:39.900Z,21.38
2022-10-17T17:52:06.325Z,21.42
2022-10-17T17:54:35.045Z,21.37
2022-10-17T17:57:02.546Z,21.47
2022-10-17T17:59:29.008Z,21.25
2022-10-17T18:01:55.471Z,20.77
2022-10-17T18:04:21.984Z,20.72
2022-10-17T18:06:49.838Z,21.04
2022-10-17T18:09:16.262Z,20.60
2022-10-17T18:11:42.695Z,21.09
2022-10-17T18:14:12.148Z,21.08
2022-10-17T18:16:38.660Z,21.37
2022-10-17T18:19:07.289Z,21.47
2022-10-17T18:21:34.375Z,21.24
2022-10-17T18:24:02.745Z,21.06
2022-10-17T18:26:29.180Z,21.24
2022-10-17T18:28:55.823Z,21.32
2022-10-17T18:31:24.180Z,21.13
2022-10-17T18:33:52.189Z,21.10
2022-10-17T18:36:18.836Z,21.33
2022-10-17T18:38:45.278Z,20.96
2022-10-17T18:41:15.222Z,20.56
2022-10-17T18:43:43.799Z,20.84
2022-10-17T18:46:14.076Z,20.87
2022-10-17T18:48:43.633Z,20.59
2022-10-17T18:51:10.680Z,20.62
2022-10-17T18:53:39.840Z,20.68
2022-10-17T18:56:06.600Z,20.37
2022-10-17T18:58:34.442Z,20.69
2022-10-17T19:01:04.827Z,20.49
2022-10-17T19:03:31.591Z,20.09
2022-10-17T19:06:01.599Z,20.55
2022-10-17T19:08:28.567Z,20.41
2022-10-17T19:10:55.061Z,20.50
2022-10-17T19:13:21.829Z,20.70
2022-10-17T19:15:49.581Z,20.61
2022-10-17T19:18:15.992Z,20.89
2022-10-17T19:20:42.664Z,20.37
2022-10-17T19:23:09.084Z,20.47
2022-10-17T19:25:35.487Z,19.73
2022-10-17T19:28:01.955Z,20.30
2022-10-17T19:30:28.430Z,20.60
2022-10-17T19:32:56.211Z,20.31
2022-10-17T19:35:22.623Z,20.27
2022-10-17T19:37:49.125Z,20.52
2022-10-17T19:40:15.586Z,20.01
2022-10-17T19:42:42.012Z,20.55
2022-10-17T19:45:09.787Z,20.59
2022-10-17T19:47:36.214Z,20.21
2022-10-17T19:52:35.569Z,20.33
2022-10-17T19:55:02.136Z,20.35
2022-10-17T19:57:28.560Z,19.94
2022-10-17T19:59:56.042Z,20.30
2022-10-17T20:02:22.773Z,20.20
2022-10-17T20:04:54.735Z,20.42
2022-10-17T20:07:34.225Z,20.43
2022-10-17T20:10:00.635Z,20.76
2022-10-17T20:12:27.274Z,20.27
2022-10-17T20:14:53.860Z,20.46
2022-10-17T20:17:20.260Z,20.18
2022-10-17T20:19:46.672Z,20.31
2022-10-17T20:22:13.190Z,20.10
2022-10-17T20:24:40.995Z,20.20
2022-10-17T20:27:07.384Z,20.33
2022-10-17T20:29:33.833Z,20.37
2022-10-17T20:32:00.277Z,20.47
2022-10-17T20:34:26.718Z,20.10
2022-10-17T20:36:53.459Z,20.21
2022-10-17T20:39:20.935Z,19.95
2022-10-17T20:41:48.760Z,19.67
2022-10-17T20:44:15.292Z,20.07
2022-10-17T20:47:00.342Z,19.80
2022-10-17T20:49:28.024Z,20.15
2022-10-17T20:51:54.436Z,19.33
2022-10-17T20:54:20.854Z,19.69
2022-10-17T20:56:48.886Z,19.85
2022-10-17T20:59:17.096Z,19.94
2022-10-17T21:01:44.949Z,20.42
2022-10-17T21:04:40.361Z,20.22
2022-10-17T21:06:58.507Z,20.31
2022-10-17T21:09:25.172Z,20.15
2022-10-17T21:11:52.936Z,20.37
2022-10-17T21:14:19.348Z,20.40
2022-10-17T21:16:45.828Z,19.74
2022-10-17T21:19:13.320Z,20.08
2022-10-17T21:21:41.574Z,20.17
2022-10-17T21:24:10.777Z,20.36
2022-10-17T21:26:38.018Z,20.35
2022-10-17T21:29:06.583Z,20.34
2022-10-17T21:31:34.474Z,20.28
2022-10-17T21:34:05.628Z,20.07
2022-10-17T21:36:32.107Z,20.36
2022-10-17T21:38:59.093Z,20.04
2022-10-17T21:41:28.193Z,20.02
2022-10-17T21:43:56.357Z,20.12
2022-10-17T21:46:24.505Z,20.21
2022-10-17T21:48:51.622Z,19.99
2022-10-17T21:51:20.204Z,19.92
2022-10-17T21:53:46.795Z,20.02
2022-10-17T21:56:14.940Z,20.15
2022-10-17T21:58:42.071Z,20.01
2022-10-17T22:01:10.441Z,20.15
2022-10-17T22:03:42.770Z,19.98
2022-10-17T22:09:01.816Z,19.39
2022-10-17T22:11:30.493Z,19.90
2022-10-17T22:14:02.493Z,19.58
2022-10-17T22:16:29.207Z,20.11
2022-10-17T22:19:03.125Z,19.93
2022-10-17T22:21:34.237Z,19.64
2022-10-17T22:24:02.193Z,19.73
2022-10-17T22:26:30.139Z,19.94
2022-10-17T22:28:56.809Z,19.70
2022-10-17T22:31:23.410Z,19.77
2022-10-17T22:33:50.130Z,19.70
2022-10-17T22:36:17.982Z,19.79
2022-10-17T22:38:44.450Z,19.86
2022-10-17T22:41:10.898Z,19.66
2022-10-17T22:43:37.340Z,19.74
2022-10-17T22:46:06.130Z,19.55
2022-10-17T22:48:33.007Z,19.56
2022-10-17T22:50:59.975Z,19.68
2022-10-17T22:53:28.386Z,19.59
2022-10-17T22:55:57.264Z,19.45
2022-10-17T22:58:25.592Z,19.43
2022-10-17T23:00:52.856Z,19.54
2022-10-17T23:03:20.376Z,19.79
2022-10-17T23:05:46.987Z,19.49
2022-10-17T23:08:14.888Z,19.60
2022-10-17T23:10:43.048Z,19.80
2022-10-17T23:13:09.508Z,19.57
2022-10-17T23:15:36.008Z,19.19
2022-10-17T23:18:02.753Z,19.25
2022-10-17T23:20:30.340Z,19.49
2022-10-17T23:22:57.963Z,19.63
2022-10-17T23:25:25.238Z,19.43
2022-10-17T23:27:53.004Z,19.59
2022-10-17T23:30:19.731Z,19.34
2022-10-17T23:32:46.196Z,19.37
2022-10-17T23:35:12.598Z,19.42
2022-10-17T23:37:39.203Z,19.27
2022-10-17T23:40:06.605Z,19.32
2022-10-17T23:42:33.083Z,19.44
2022-10-17T23:45:00.854Z,19.57
2022-10-17T23:47:27.314Z,18.97
2022-10-17T23:49:53.726Z,19.43
2022-10-17T23:52:20.263Z,19.59
2022-10-17T23:54:46.669Z,19.61
2022-10-17T23:57:13.050Z,19.60
2022-10-17T23:59:39.471Z,18.86
